Capt. Ted — WDD6210 — position and weather

sailwx.info

Track history (hours):
 
Tides and Currents Weather Stations Pressure Air Temp Water Temp Dewpoint Dewpoint Depression Visibility Wind Speed Wind Dir Waves Ship Positions

Capt. Ted

More information available from US FCC via Universal Licensing System and Coast Guard Vessel Documentation Center.

Last reported at 2014-Aug-30 19:22 UTC. Time now 2014-Sep-03 02:13 UTC.
Position N 39°02' W 076°22'.

Length 32 m; draft 2.8 m.

Type: Tug. MMSI: 367169710.

Date/timePositionNaut miles runAvg speedWind from/ knotsBaromVisibWave heightAir tempDewpointWater temp
2014-Aug-30 19:22N 39°02' W 076°22'13 1.1
2014-Aug-30 08:08N 38°50' W 076°25'6 7.2
2014-Aug-30 07:14N 38°56' W 076°24'6 7.2
2014-Aug-30 06:28N 39°02' W 076°23'8 6.8
2014-Aug-30 05:17N 39°10' W 076°25'5 6.4
2014-Aug-30 04:33N 39°12' W 076°30'5 5.2
2014-Aug-30 03:33N 39°15' W 076°36'0 0.4
2014-Aug-30 02:33N 39°15' W 076°36'3 2.7
2014-Aug-30 01:33N 39°14' W 076°33'5 5.3
2014-Aug-30 00:33N 39°11' W 076°27'6 4.2
2014-Aug-29 23:14N 39°14' W 076°21'11 0.4
2014-Aug-28 17:23N 39°03' W 076°22'16 0.5
2014-Aug-27 06:33N 38°47' W 076°26'5 4.4
2014-Aug-27 05:25N 38°52' W 076°25'5 5.8
2014-Aug-27 04:33N 38°57' W 076°24'7 7.0
2014-Aug-27 03:33N 39°04' W 076°21'4 3.6
2014-Aug-27 02:33N 39°07' W 076°20'7 0.3
2014-Aug-26 04:13N 39°13' W 076°15'5 6.1
2014-Aug-26 03:24N 39°09' W 076°19'6 6.3
2014-Aug-26 02:27N 39°03' W 076°21'7 6.4
2014-Aug-26 01:25N 38°57' W 076°24'6 6.8
2014-Aug-26 00:28N 38°51' W 076°26'8 0.2
2014-Aug-24 06:33N 38°58' W 076°24'7 5.2
2014-Aug-24 05:16N 39°05' W 076°21'4 5.0
2014-Aug-24 04:31N 39°08' W 076°20'  
2014-Aug-20 23:33N 38°37' W 077°13'2 0.8
2014-Aug-20 21:30N 38°38' W 077°13'  
Track history (hours):
 
Tides and Currents Weather Stations Pressure Air Temp Water Temp Dewpoint Dewpoint Depression Visibility Wind Speed Wind Dir Waves Ship Positions

Capt. Ted

More information available from US FCC via Universal Licensing System and Coast Guard Vessel Documentation Center.

Last reported at 2014-Aug-30 19:22 UTC. Time now 2014-Sep-03 02:13 UTC.
Position N 39°02' W 076°22'.

Length 32 m; draft 2.8 m.

Type: Tug. MMSI: 367169710.

Date/timePositionNaut miles runAvg speedWind from/ knotsBaromVisibWave heightAir tempDewpointWater temp
2014-Aug-30 19:22N 39°02' W 076°22'13 1.1
2014-Aug-30 08:08N 38°50' W 076°25'6 7.2
2014-Aug-30 07:14N 38°56' W 076°24'6 7.2
2014-Aug-30 06:28N 39°02' W 076°23'8 6.8
2014-Aug-30 05:17N 39°10' W 076°25'5 6.4
2014-Aug-30 04:33N 39°12' W 076°30'5 5.2
2014-Aug-30 03:33N 39°15' W 076°36'0 0.4
2014-Aug-30 02:33N 39°15' W 076°36'3 2.7
2014-Aug-30 01:33N 39°14' W 076°33'5 5.3
2014-Aug-30 00:33N 39°11' W 076°27'6 4.2
2014-Aug-29 23:14N 39°14' W 076°21'11 0.4
2014-Aug-28 17:23N 39°03' W 076°22'16 0.5
2014-Aug-27 06:33N 38°47' W 076°26'5 4.4
2014-Aug-27 05:25N 38°52' W 076°25'5 5.8
2014-Aug-27 04:33N 38°57' W 076°24'7 7.0
2014-Aug-27 03:33N 39°04' W 076°21'4 3.6
2014-Aug-27 02:33N 39°07' W 076°20'7 0.3
2014-Aug-26 04:13N 39°13' W 076°15'5 6.1
2014-Aug-26 03:24N 39°09' W 076°19'6 6.3
2014-Aug-26 02:27N 39°03' W 076°21'7 6.4
2014-Aug-26 01:25N 38°57' W 076°24'6 6.8
2014-Aug-26 00:28N 38°51' W 076°26'8 0.2
2014-Aug-24 06:33N 38°58' W 076°24'7 5.2
2014-Aug-24 05:16N 39°05' W 076°21'4 5.0
2014-Aug-24 04:31N 39°08' W 076°20'  
2014-Aug-20 23:33N 38°37' W 077°13'2 0.8
2014-Aug-20 21:30N 38°38' W 077°13'  

Dump ship's entire track history